createdAt,value
2022-09-04T00:02:52.919Z,52
2022-09-04T00:08:39.586Z,48
2022-09-04T00:14:20.053Z,54
2022-09-04T00:20:00.586Z,54
2022-09-04T00:25:40.928Z,56
2022-09-04T00:31:21.819Z,46
2022-09-04T00:37:03.153Z,56
2022-09-04T00:42:43.239Z,46
2022-09-04T00:48:23.772Z,46
2022-09-04T00:54:04.613Z,54
2022-09-04T00:59:44.771Z,44
2022-09-04T01:05:27.937Z,48
2022-09-04T01:11:09.643Z,54
2022-09-04T01:16:50.936Z,56
2022-09-04T01:22:31.830Z,40
2022-09-04T01:28:12.129Z,48
2022-09-04T01:33:52.600Z,58
2022-09-04T01:45:17.050Z,52
2022-09-04T01:50:57.668Z,54
2022-09-04T01:56:37.764Z,56
2022-09-04T02:02:18.285Z,54
2022-09-04T02:07:58.884Z,48
2022-09-04T02:13:39.079Z,42
2022-09-04T02:19:19.516Z,54
2022-09-04T02:24:59.692Z,54
2022-09-04T02:30:39.898Z,50
2022-09-04T02:36:20.450Z,52
2022-09-04T02:42:01.021Z,46
2022-09-04T02:47:41.045Z,54
2022-09-04T02:53:21.428Z,44
2022-09-04T02:59:01.835Z,52
2022-09-04T03:04:42.063Z,46
2022-09-04T03:10:22.283Z,52
2022-09-04T03:16:03.499Z,52
2022-09-04T03:21:44.194Z,46
2022-09-04T03:27:24.751Z,52
2022-09-04T03:33:04.829Z,56
2022-09-04T03:38:44.969Z,46
2022-09-04T03:44:25.348Z,52
2022-09-04T03:50:05.734Z,52
2022-09-04T03:55:46.037Z,44
2022-09-04T04:01:26.839Z,46
2022-09-04T04:07:07.441Z,56
2022-09-04T04:12:50.397Z,56
2022-09-04T04:18:30.948Z,52
2022-09-04T04:24:11.275Z,56
2022-09-04T04:29:51.433Z,44
2022-09-04T04:35:31.647Z,46
2022-09-04T04:41:11.987Z,50
2022-09-04T04:46:52.806Z,56
2022-09-04T04:52:33.236Z,46
2022-09-04T04:58:13.574Z,56
2022-09-04T05:03:53.956Z,54
2022-09-04T05:09:34.293Z,42
2022-09-04T05:15:14.784Z,54
2022-09-04T05:20:54.938Z,44
2022-09-04T05:26:35.404Z,46
2022-09-04T05:32:15.749Z,50
2022-09-04T05:37:56.223Z,52
2022-09-04T05:43:36.737Z,46
2022-09-04T05:49:17.399Z,46
2022-09-04T05:54:58.208Z,56
2022-09-04T06:00:38.794Z,44
2022-09-04T06:06:19.608Z,56
2022-09-04T06:12:01.034Z,54
2022-09-04T06:17:41.534Z,50
2022-09-04T06:23:22.041Z,56
2022-09-04T06:29:06.324Z,46
2022-09-04T06:34:46.731Z,50
2022-09-04T06:40:27.198Z,52
2022-09-04T06:46:07.754Z,46
2022-09-04T06:51:48.739Z,50
2022-09-04T06:57:30.137Z,68
2022-09-04T07:03:10.688Z,58
2022-09-04T07:08:50.880Z,52
2022-09-04T07:14:31.172Z,50
2022-09-04T07:20:15.297Z,58
2022-09-04T07:25:55.635Z,60
2022-09-04T07:31:36.515Z,62
2022-09-04T07:37:16.895Z,62
2022-09-04T07:42:59.330Z,50
2022-09-04T07:48:39.755Z,56
2022-09-04T07:54:23.692Z,52
2022-09-04T08:00:04.866Z,6
2022-09-04T08:05:44.352Z,14
2022-09-04T08:11:24.863Z,4
2022-09-04T08:17:05.901Z,4
2022-09-04T08:22:45.934Z,8
2022-09-04T08:28:26.958Z,6
2022-09-04T08:34:07.173Z,16
2022-09-04T08:39:47.980Z,14
2022-09-04T08:45:29.178Z,4
2022-09-04T08:51:22.270Z,6
2022-09-04T08:57:02.309Z,2
2022-09-04T09:02:47.819Z,6
2022-09-04T09:08:32.563Z,4
2022-09-04T09:14:13.454Z,2
2022-09-04T09:19:53.847Z,0
2022-09-04T09:25:33.698Z,2
2022-09-04T09:31:14.577Z,12
2022-09-04T09:36:56.297Z,0
2022-09-04T09:42:35.969Z,0
2022-09-04T09:48:16.459Z,2
2022-09-04T09:53:57.572Z,2
2022-09-04T09:59:38.917Z,2
2022-09-04T10:05:19.031Z,0
2022-09-04T10:10:59.489Z,2
2022-09-04T10:16:40.100Z,2
2022-09-04T10:22:20.755Z,0
2022-09-04T10:28:01.276Z,4
2022-09-04T10:33:41.561Z,0
2022-09-04T10:39:21.890Z,4
2022-09-04T10:45:02.649Z,0
2022-09-04T10:50:46.354Z,10
2022-09-04T10:56:28.479Z,48
2022-09-04T11:02:09.117Z,2
2022-09-04T11:07:50.953Z,0
2022-09-04T11:13:32.176Z,0
2022-09-04T11:24:16.971Z,6
2022-09-04T11:29:58.117Z,10
2022-09-04T11:35:38.293Z,8
2022-09-04T11:41:18.191Z,2
2022-09-04T11:46:58.713Z,16
2022-09-04T11:52:38.804Z,8
2022-09-04T11:58:18.590Z,6
2022-09-04T12:03:59.412Z,10
2022-09-04T12:09:39.873Z,6
2022-09-04T12:15:20.223Z,2
2022-09-04T12:21:07.236Z,10
2022-09-04T12:27:04.684Z,8
2022-09-04T12:32:46.139Z,8
2022-09-04T12:38:26.455Z,10
2022-09-04T12:44:06.610Z,16
2022-09-04T12:49:46.621Z,6
2022-09-04T12:55:36.647Z,12
2022-09-04T13:01:17.936Z,26
2022-09-04T13:06:58.633Z,0
2022-09-04T13:12:39.557Z,0
2022-09-04T13:18:21.116Z,0
2022-09-04T13:24:02.048Z,0
2022-09-04T13:29:47.723Z,14
2022-09-04T13:35:28.414Z,6
2022-09-04T13:41:08.857Z,60
2022-09-04T13:46:55.120Z,16
2022-09-04T13:52:38.526Z,68
2022-09-04T13:58:19.414Z,58
2022-09-04T14:04:03.033Z,54
2022-09-04T14:09:47.859Z,2
2022-09-04T14:15:28.561Z,12
2022-09-04T14:21:12.507Z,10
2022-09-04T14:26:58.562Z,26
2022-09-04T14:32:39.199Z,34
2022-09-04T14:38:27.940Z,64
2022-09-04T14:44:08.618Z,60
2022-09-04T14:49:48.461Z,66
2022-09-04T14:55:28.644Z,58
2022-09-04T15:01:08.255Z,56
2022-09-04T15:07:12.596Z,60
2022-09-04T15:12:52.903Z,58
2022-09-04T15:18:33.255Z,66
2022-09-04T15:24:14.047Z,52
2022-09-04T15:29:55.077Z,52
2022-09-04T15:35:44.443Z,54
2022-09-04T15:41:24.735Z,58
2022-09-04T15:47:05.493Z,52
2022-09-04T15:52:46.073Z,62
2022-09-04T15:58:26.412Z,64
2022-09-04T16:04:07.659Z,52
2022-09-04T16:09:47.936Z,64
2022-09-04T16:15:28.336Z,60
2022-09-04T16:21:08.486Z,50
2022-09-04T16:26:49.240Z,52
2022-09-04T16:32:29.325Z,54
2022-09-04T16:38:09.431Z,48
2022-09-04T16:43:49.659Z,62
2022-09-04T16:49:29.812Z,66
2022-09-04T16:55:09.976Z,56
2022-09-04T17:00:50.044Z,58
2022-09-04T17:06:30.224Z,56
2022-09-04T17:12:18.224Z,60
2022-09-04T17:18:01.156Z,56
2022-09-04T17:29:46.214Z,56
2022-09-04T17:42:10.641Z,52
2022-09-04T17:47:54.162Z,58
2022-09-04T17:53:35.468Z,60
2022-09-04T17:59:15.440Z,56
2022-09-04T18:04:55.504Z,54
2022-09-04T18:10:42.452Z,56
2022-09-04T18:16:23.830Z,56
2022-09-04T18:22:34.253Z,56
2022-09-04T18:28:14.774Z,48
2022-09-04T18:39:55.322Z,56
2022-09-04T18:51:22.641Z,56
2022-09-04T18:57:07.153Z,56
2022-09-04T19:02:54.330Z,48
2022-09-04T19:08:34.539Z,62
2022-09-04T19:14:14.635Z,58
2022-09-04T19:19:57.317Z,46
2022-09-04T19:25:55.302Z,50
2022-09-04T19:31:35.961Z,52
2022-09-04T19:46:30.994Z,48
2022-09-04T20:04:14.690Z,48
2022-09-04T20:09:58.557Z,48
2022-09-04T20:15:39.314Z,58
2022-09-04T20:21:19.677Z,54
2022-09-04T20:27:00.674Z,50
2022-09-04T20:32:43.722Z,48
2022-09-04T20:38:40.247Z,50
2022-09-04T20:44:23.717Z,56
2022-09-04T20:53:17.914Z,44
2022-09-04T21:03:32.794Z,52
2022-09-04T21:09:14.445Z,58
2022-09-04T21:14:56.996Z,48
2022-09-04T21:21:01.208Z,56
2022-09-04T21:26:44.786Z,52
2022-09-04T21:32:27.278Z,50
2022-09-04T21:38:10.512Z,48
2022-09-04T21:43:50.697Z,40
2022-09-04T21:49:34.050Z,46
2022-09-04T22:03:02.953Z,46
2022-09-04T22:13:51.157Z,56
2022-09-04T22:19:40.138Z,48
2022-09-04T22:25:19.869Z,54
2022-09-04T22:31:00.573Z,52
2022-09-04T22:36:40.955Z,54
2022-09-04T22:42:21.230Z,48
2022-09-04T22:48:01.478Z,58
2022-09-04T22:53:41.705Z,48
2022-09-04T22:59:31.120Z,46
2022-09-04T23:05:11.471Z,44
2022-09-04T23:14:14.723Z,56
2022-09-04T23:27:02.247Z,44
2022-09-04T23:32:46.359Z,60
2022-09-04T23:38:26.405Z,58
2022-09-04T23:44:06.759Z,56
2022-09-04T23:49:47.488Z,54
2022-09-04T23:55:50.224Z,52
